This is the latest recevied weather packets stored in our database for station/object N8ESC. If no packets are shown the sender has not sent any weather packets the latest 10 day(s).
| Time | Temp. | Humidity | Pressure | Rain* | Wind** | Luminosity | Snow |
|---|---|---|---|---|---|---|---|
| 1777693499 | 2.22° C | 53% | 1017.1 hPa | 0 mm | - | 0 W/m² | - |
| 1777693198 | 2.22° C | 53% | 1017.1 hPa | 0 mm | - | 0 W/m² | - |
| 1777692895 | 1.67° C | 54% | 1017.1 hPa | 0 mm | - | 0 W/m² | - |
| 1777692591 | 1.67° C | 55% | 1017.2 hPa | 0 mm | - | 0 W/m² | - |
| 1777692288 | 1.67° C | 56% | 1017 hPa | 0 mm | - | 0 W/m² | - |
| 1777691985 | 1.67° C | 56% | 1017.2 hPa | 0 mm | - | 0 W/m² | - |
| 1777691683 | 2.22° C | 56% | 1017.2 hPa | 0 mm | - | 0 W/m² | - |
| 1777691381 | 2.22° C | 55% | 1017.4 hPa | 0 mm | - | 0 W/m² | - |
| 1777691079 | 2.78° C | 54% | 1017.2 hPa | 0 mm | - | 0 W/m² | - |
| 1777690777 | 2.78° C | 53% | 1017.3 hPa | 0 mm | - | 0 W/m² | - |
| 1777690473 | 2.78° C | 53% | 1017.1 hPa | 0 mm | - | 0 W/m² | - |
| 1777690171 | 2.78° C | 52% | 1017.3 hPa | 0 mm | - | 0 W/m² | - |
| 1777689870 | 2.78° C | 51% | 1017.2 hPa | 0 mm | - | 0 W/m² | - |
| 1777689568 | 2.78° C | 51% | 1017.2 hPa | 0 mm | - | 0 W/m² | - |
| 1777689265 | 2.78° C | 50% | 1017.2 hPa | 0 mm | - | 0 W/m² | - |
| 1777688962 | 2.78° C | 50% | 1017.3 hPa | 0 mm | - | 0 W/m² | - |
| 1777688658 | 2.78° C | 50% | 1017.2 hPa | 0 mm | - | 0 W/m² | - |
| 1777688355 | 3.33° C | 49% | 1017.3 hPa | 0 mm | - | 0 W/m² | - |
| 1777688053 | 3.33° C | 49% | 1017.1 hPa | 0 mm | - | 0 W/m² | - |
| 1777687750 | 3.33° C | 50% | 1017.1 hPa | 0 mm | - | 0 W/m² | - |
| 1777674120 | 6.67° C | 42% | 1016.2 hPa | 0 mm | - | 144 W/m² | - |
| 1777673816 | 6.11° C | 42% | 1015.9 hPa | 0 mm | - | 167 W/m² | - |
| 1777673513 | 6.67° C | 43% | 1016 hPa | 0 mm | - | 190 W/m² | - |
| 1777673211 | 6.11° C | 43% | 1016 hPa | 0 mm | - | 301 W/m² | - |
| 1777672908 | 6.67° C | 42% | 1015.9 hPa | 0 mm | - | 195 W/m² | - |
* Rain latest hour (hover to see other rain measurements)
** Current wind speed in m/s (hover to see current wind gust speed)